createdAt,value
2022-10-17T00:00:56.301Z,11.40
2022-10-17T00:03:24.300Z,11.30
2022-10-17T00:05:52.320Z,11.30
2022-10-17T00:08:20.960Z,11.30
2022-10-17T00:10:57.998Z,11.30
2022-10-17T00:13:27.560Z,11.20
2022-10-17T00:15:55.999Z,11.20
2022-10-17T00:18:24.108Z,11.20
2022-10-17T00:20:52.321Z,11.30
2022-10-17T00:23:20.361Z,11.30
2022-10-17T00:25:48.642Z,11.20
2022-10-17T00:28:17.110Z,11.40
2022-10-17T00:30:46.573Z,11.20
2022-10-17T00:33:14.583Z,11.20
2022-10-17T00:35:42.563Z,11.30
2022-10-17T00:38:11.646Z,11.30
2022-10-17T00:40:40.271Z,11.20
2022-10-17T00:43:16.475Z,11.20
2022-10-17T00:45:45.914Z,11.20
2022-10-17T00:48:14.423Z,11.20
2022-10-17T00:50:45.149Z,11.20
2022-10-17T00:53:13.456Z,11.20
2022-10-17T00:55:49.272Z,11.30
2022-10-17T00:58:18.532Z,11.30
2022-10-17T01:00:49.095Z,11.40
2022-10-17T01:03:17.658Z,11.40
2022-10-17T01:05:45.684Z,11.50
2022-10-17T01:08:14.344Z,11.50
2022-10-17T01:10:52.074Z,11.60
2022-10-17T01:13:26.598Z,11.60
2022-10-17T01:16:03.803Z,11.60
2022-10-17T01:18:44.383Z,11.60
2022-10-17T01:21:31.810Z,11.60
2022-10-17T01:24:34.353Z,11.70
2022-10-17T01:27:26.921Z,11.70
2022-10-17T01:30:19.073Z,11.70
2022-10-17T01:32:54.695Z,11.70
2022-10-17T01:35:27.972Z,11.70
2022-10-17T01:38:02.958Z,11.80
2022-10-17T01:40:36.928Z,11.70
2022-10-17T01:43:08.872Z,11.70
2022-10-17T01:45:44.361Z,11.80
2022-10-17T01:48:18.300Z,11.80
2022-10-17T01:50:51.697Z,11.80
2022-10-17T01:53:24.556Z,11.80
2022-10-17T01:55:55.138Z,11.80
2022-10-17T01:58:29.893Z,11.90
2022-10-17T02:01:02.194Z,11.90
2022-10-17T02:03:35.950Z,11.80
2022-10-17T02:06:07.438Z,11.80
2022-10-17T02:08:43.287Z,11.80
2022-10-17T02:11:15.975Z,11.70
2022-10-17T02:14:05.408Z,11.70
2022-10-17T02:16:39.745Z,11.70
2022-10-17T02:19:28.596Z,11.70
2022-10-17T02:22:10.283Z,11.60
2022-10-17T02:24:48.046Z,11.70
2022-10-17T02:27:24.987Z,11.60
2022-10-17T02:29:59.298Z,11.60
2022-10-17T02:32:36.336Z,11.50
2022-10-17T02:35:09.993Z,11.50
2022-10-17T02:37:39.261Z,11.50
2022-10-17T02:40:09.513Z,11.50
2022-10-17T02:42:41.744Z,11.40
2022-10-17T02:45:11.067Z,11.40
2022-10-17T02:47:47.045Z,11.40
2022-10-17T02:50:16.751Z,11.40
2022-10-17T02:52:51.381Z,11.30
2022-10-17T02:55:22.011Z,11.30
2022-10-17T02:57:53.976Z,11.20
2022-10-17T03:00:24.569Z,11.10
2022-10-17T03:02:54.493Z,11.10
2022-10-17T03:05:25.578Z,11.10
2022-10-17T03:07:54.726Z,11.10
2022-10-17T03:10:23.108Z,11.00
2022-10-17T03:12:51.151Z,11.00
2022-10-17T03:15:19.907Z,11.00
2022-10-17T03:17:47.984Z,11.00
2022-10-17T03:20:16.127Z,11.00
2022-10-17T03:22:45.604Z,11.00
2022-10-17T03:25:13.746Z,11.30
2022-10-17T03:27:41.908Z,11.00
2022-10-17T03:30:11.311Z,11.00
2022-10-17T03:32:40.319Z,10.90
2022-10-17T03:35:13.999Z,10.90
2022-10-17T03:37:47.751Z,10.80
2022-10-17T03:40:17.296Z,10.90
2022-10-17T03:42:45.792Z,10.80
2022-10-17T03:45:14.004Z,10.80
2022-10-17T03:47:42.861Z,10.80
2022-10-17T03:50:11.281Z,10.80
2022-10-17T03:52:40.266Z,10.80
2022-10-17T03:55:10.454Z,10.70
2022-10-17T03:57:41.091Z,10.70
2022-10-17T04:00:13.182Z,10.70
2022-10-17T04:02:51.172Z,10.70
2022-10-17T04:05:20.485Z,10.70
2022-10-17T04:07:49.283Z,10.70
2022-10-17T04:10:20.769Z,10.70
2022-10-17T04:12:49.036Z,10.70
2022-10-17T04:15:17.284Z,10.70
2022-10-17T04:17:45.817Z,10.70
2022-10-17T04:20:15.152Z,10.70
2022-10-17T04:22:43.535Z,10.70
2022-10-17T04:25:12.244Z,10.80
2022-10-17T04:27:46.825Z,10.60
2022-10-17T04:30:15.969Z,10.90
2022-10-17T04:32:44.532Z,10.70
2022-10-17T04:35:21.127Z,10.70
2022-10-17T04:37:55.188Z,10.70
2022-10-17T04:40:23.311Z,10.70
2022-10-17T04:42:54.733Z,10.70
2022-10-17T04:45:28.672Z,10.70
2022-10-17T04:48:02.007Z,10.70
2022-10-17T04:50:30.082Z,10.70
2022-10-17T04:53:28.254Z,10.70
2022-10-17T04:55:56.794Z,10.70
2022-10-17T04:58:26.911Z,10.70
2022-10-17T05:00:55.152Z,10.70
2022-10-17T05:03:27.437Z,10.60
2022-10-17T05:05:55.904Z,10.60
2022-10-17T05:08:24.582Z,10.60
2022-10-17T05:10:52.806Z,10.60
2022-10-17T05:13:21.018Z,10.60
2022-10-17T05:15:50.680Z,10.60
2022-10-17T05:18:18.976Z,10.40
2022-10-17T05:20:48.044Z,10.50
2022-10-17T05:23:16.365Z,10.50
2022-10-17T05:25:45.569Z,10.50
2022-10-17T05:28:13.706Z,10.50
2022-10-17T05:30:43.523Z,10.60
2022-10-17T05:33:13.848Z,10.50
2022-10-17T05:35:42.228Z,10.50
2022-10-17T05:38:11.725Z,10.50
2022-10-17T05:40:43.049Z,10.60
2022-10-17T05:43:11.445Z,10.50
2022-10-17T05:45:40.169Z,10.40
2022-10-17T05:48:12.986Z,10.60
2022-10-17T05:50:41.069Z,10.40
2022-10-17T05:53:16.858Z,10.40
2022-10-17T05:55:56.895Z,10.40
2022-10-17T05:58:45.629Z,10.50
2022-10-17T06:01:24.497Z,10.50
2022-10-17T06:03:54.186Z,10.50
2022-10-17T06:06:22.541Z,10.50
2022-10-17T06:08:50.645Z,10.50
2022-10-17T06:11:24.024Z,10.50
2022-10-17T06:13:52.113Z,10.50
2022-10-17T06:16:25.278Z,10.50
2022-10-17T06:18:54.725Z,10.60
2022-10-17T06:21:27.236Z,10.70
2022-10-17T06:24:03.714Z,10.70
2022-10-17T06:26:35.967Z,10.80
2022-10-17T06:29:04.892Z,10.80
2022-10-17T06:31:38.254Z,10.90
2022-10-17T06:34:08.245Z,10.90
2022-10-17T06:36:36.474Z,11.00
2022-10-17T06:39:05.244Z,11.10
2022-10-17T06:41:39.598Z,11.20
2022-10-17T06:44:11.199Z,11.30
2022-10-17T06:46:49.200Z,11.40
2022-10-17T06:49:20.355Z,11.50
2022-10-17T06:52:14.692Z,11.50
2022-10-17T06:54:52.855Z,11.60
2022-10-17T06:57:42.034Z,11.70
2022-10-17T07:00:42.636Z,11.80
2022-10-17T07:03:12.813Z,11.90
2022-10-17T07:05:42.231Z,11.90
2022-10-17T07:08:11.321Z,12.20
2022-10-17T07:10:40.160Z,12.00
2022-10-17T07:13:09.234Z,12.10
2022-10-17T07:15:38.869Z,12.20
2022-10-17T07:18:07.045Z,12.30
2022-10-17T07:20:35.568Z,12.30
2022-10-17T07:23:05.136Z,12.40
2022-10-17T07:25:36.373Z,12.40
2022-10-17T07:28:09.193Z,12.50
2022-10-17T07:30:37.363Z,12.60
2022-10-17T07:33:10.046Z,12.70
2022-10-17T07:35:40.809Z,12.60
2022-10-17T07:38:10.459Z,12.80
2022-10-17T07:40:38.699Z,12.90
2022-10-17T07:43:06.810Z,13.00
2022-10-17T07:45:34.921Z,13.10
2022-10-17T07:48:03.401Z,13.20
2022-10-17T07:50:33.094Z,13.20
2022-10-17T07:53:01.087Z,13.30
2022-10-17T07:55:30.473Z,13.40
2022-10-17T07:58:00.335Z,13.70
2022-10-17T08:00:28.581Z,13.70
2022-10-17T08:02:56.611Z,13.80
2022-10-17T08:05:24.693Z,13.90
2022-10-17T08:07:52.754Z,14.00
2022-10-17T08:10:21.428Z,14.10
2022-10-17T08:12:50.810Z,14.20
2022-10-17T08:15:19.041Z,14.40
2022-10-17T08:17:47.203Z,14.60
2022-10-17T08:20:15.261Z,14.70
2022-10-17T08:22:43.306Z,14.80
2022-10-17T08:25:11.449Z,14.90
2022-10-17T08:27:39.663Z,15.10
2022-10-17T08:30:10.365Z,15.20
2022-10-17T08:32:38.669Z,15.30
2022-10-17T08:35:07.575Z,15.40
2022-10-17T08:37:35.914Z,15.60
2022-10-17T08:40:05.225Z,15.70
2022-10-17T08:42:49.967Z,15.90
2022-10-17T08:45:26.445Z,16.00
2022-10-17T08:47:59.093Z,16.20
2022-10-17T08:50:33.485Z,16.30
2022-10-17T08:53:07.006Z,16.50
2022-10-17T08:55:41.336Z,16.60
2022-10-17T08:58:15.559Z,16.80
2022-10-17T09:00:54.185Z,17.00
2022-10-17T09:03:46.680Z,17.20
2022-10-17T09:06:32.483Z,17.40
2022-10-17T09:09:27.604Z,17.60
2022-10-17T09:12:09.858Z,17.90
2022-10-17T09:14:54.242Z,18.10
2022-10-17T09:17:41.730Z,18.40
2022-10-17T09:20:15.827Z,18.50
2022-10-17T09:22:50.718Z,18.60
2022-10-17T09:25:21.280Z,18.70
2022-10-17T09:27:53.260Z,18.70
2022-10-17T09:30:45.273Z,18.80
2022-10-17T09:33:35.256Z,19.00
2022-10-17T09:36:07.681Z,19.20
2022-10-17T09:38:42.072Z,19.40
2022-10-17T09:41:43.805Z,19.40
2022-10-17T09:44:17.197Z,19.60
2022-10-17T09:47:03.920Z,19.60
2022-10-17T09:49:37.032Z,19.70
2022-10-17T09:52:07.708Z,19.90
2022-10-17T09:54:43.148Z,20.20
2022-10-17T09:57:12.861Z,20.30
2022-10-17T09:59:42.953Z,20.50
2022-10-17T10:02:18.554Z,20.60
2022-10-17T10:05:04.723Z,20.60
2022-10-17T10:07:36.067Z,20.70
2022-10-17T10:10:08.329Z,20.80
2022-10-17T10:12:38.419Z,20.90
2022-10-17T10:15:33.218Z,20.90
2022-10-17T10:18:01.569Z,20.70
2022-10-17T10:20:34.589Z,20.50
2022-10-17T10:23:14.076Z,20.30
2022-10-17T10:25:54.791Z,20.30
2022-10-17T10:28:27.812Z,20.30
2022-10-17T10:30:57.310Z,20.50
2022-10-17T10:33:29.152Z,20.70
2022-10-17T10:36:01.804Z,21.00
2022-10-17T10:38:31.046Z,21.20
2022-10-17T10:41:04.176Z,21.40
2022-10-17T10:43:36.848Z,21.60
2022-10-17T10:46:07.753Z,21.80
2022-10-17T10:48:37.211Z,22.00
2022-10-17T10:51:13.889Z,22.00
2022-10-17T10:53:48.044Z,22.10
2022-10-17T10:56:19.837Z,22.00
2022-10-17T10:58:55.055Z,22.10
2022-10-17T11:01:29.751Z,22.20
2022-10-17T11:04:07.652Z,22.40
2022-10-17T11:06:40.886Z,22.50
2022-10-17T11:09:20.447Z,22.60
2022-10-17T11:11:53.649Z,22.60
2022-10-17T11:14:39.316Z,22.70
2022-10-17T11:17:15.157Z,22.90
2022-10-17T11:19:49.770Z,23.20
2022-10-17T11:22:29.249Z,23.40
2022-10-17T11:25:00.753Z,23.50
2022-10-17T11:27:30.643Z,23.70
2022-10-17T11:29:59.609Z,23.90
2022-10-17T11:32:32.812Z,24.10
2022-10-17T11:35:05.177Z,24.30
2022-10-17T11:37:40.734Z,24.30
2022-10-17T11:40:20.415Z,24.50
2022-10-17T11:42:58.100Z,24.80
2022-10-17T11:45:29.436Z,25.00
2022-10-17T11:48:05.321Z,24.80
2022-10-17T11:53:29.909Z,24.60
2022-10-17T11:56:01.617Z,25.10
2022-10-17T11:58:37.571Z,25.40
2022-10-17T12:01:16.139Z,25.60
2022-10-17T12:04:05.771Z,26.00
2022-10-17T12:06:49.040Z,26.20
2022-10-17T12:09:27.027Z,26.10
2022-10-17T12:11:56.862Z,25.80
2022-10-17T12:14:41.501Z,26.00
2022-10-17T12:17:39.237Z,26.20
2022-10-17T12:20:32.295Z,26.50
2022-10-17T12:23:18.446Z,26.30
2022-10-17T12:25:53.707Z,26.00
2022-10-17T12:28:29.304Z,25.70
2022-10-17T12:31:00.077Z,25.30
2022-10-17T12:33:34.084Z,25.10
2022-10-17T12:36:38.743Z,24.90
2022-10-17T12:39:49.445Z,25.80
2022-10-17T12:42:50.924Z,26.10
2022-10-17T12:45:51.447Z,26.00
2022-10-17T12:49:00.997Z,26.20
2022-10-17T12:51:37.903Z,27.40
2022-10-17T12:54:13.100Z,27.70
2022-10-17T12:56:42.893Z,27.10
2022-10-17T12:59:17.780Z,26.20
2022-10-17T13:01:49.321Z,25.40
2022-10-17T13:04:18.801Z,25.20
2022-10-17T13:06:49.393Z,25.00
2022-10-17T13:09:23.908Z,24.90
2022-10-17T13:11:53.913Z,25.00
2022-10-17T13:14:24.306Z,25.00
2022-10-17T13:16:54.587Z,25.20
2022-10-17T13:19:25.102Z,26.20
2022-10-17T13:21:56.012Z,27.70
2022-10-17T13:24:28.831Z,29.10
2022-10-17T13:26:57.203Z,29.90
2022-10-17T13:29:28.681Z,29.60
2022-10-17T13:32:01.080Z,29.40
2022-10-17T13:34:29.784Z,28.80
2022-10-17T13:37:01.265Z,28.10
2022-10-17T13:39:54.338Z,27.90
2022-10-17T13:42:27.163Z,28.60
2022-10-17T13:44:58.107Z,28.50
2022-10-17T13:47:28.323Z,28.70
2022-10-17T13:49:57.496Z,28.90
2022-10-17T13:52:29.637Z,28.60
2022-10-17T13:55:10.626Z,28.10
2022-10-17T13:57:40.619Z,27.10
2022-10-17T14:00:20.435Z,26.30
2022-10-17T14:02:49.540Z,25.90
2022-10-17T14:05:20.632Z,25.60
2022-10-17T14:10:42.997Z,25.10
2022-10-17T14:13:21.766Z,24.80
2022-10-17T14:15:53.717Z,24.60
2022-10-17T14:18:25.949Z,24.30
2022-10-17T14:23:44.104Z,23.80
2022-10-17T14:26:15.326Z,23.70
2022-10-17T14:28:45.543Z,23.70
2022-10-17T14:31:25.593Z,23.70
2022-10-17T14:33:55.226Z,23.60
2022-10-17T14:36:32.967Z,23.50
2022-10-17T14:39:01.945Z,23.40
2022-10-17T14:41:47.670Z,23.20
2022-10-17T14:44:21.801Z,23.00
2022-10-17T14:46:55.062Z,22.80
2022-10-17T14:49:32.401Z,22.70
2022-10-17T14:52:28.821Z,22.60
2022-10-17T14:54:58.734Z,22.50
2022-10-17T14:57:42.497Z,22.40
2022-10-17T15:00:15.889Z,22.40
2022-10-17T15:02:46.376Z,22.40
2022-10-17T15:05:14.934Z,22.30
2022-10-17T15:07:43.347Z,22.30
2022-10-17T15:10:25.784Z,22.20
2022-10-17T15:12:57.578Z,22.20
2022-10-17T15:15:28.920Z,22.20
2022-10-17T15:17:58.641Z,22.10
2022-10-17T15:20:30.151Z,22.10
2022-10-17T15:22:59.569Z,21.90
2022-10-17T15:25:28.643Z,21.80
2022-10-17T15:27:57.314Z,21.70
2022-10-17T15:30:27.912Z,21.60
2022-10-17T15:32:55.980Z,21.50
2022-10-17T15:35:25.968Z,21.40
2022-10-17T15:37:54.493Z,21.40
2022-10-17T15:40:24.829Z,21.20
2022-10-17T15:42:53.317Z,21.30
2022-10-17T15:45:22.540Z,21.10
2022-10-17T15:47:53.256Z,21.00
2022-10-17T15:50:22.420Z,21.00
2022-10-17T15:52:52.171Z,21.00
2022-10-17T15:55:20.501Z,20.80
2022-10-17T15:57:49.780Z,20.70
2022-10-17T16:00:19.694Z,20.60
2022-10-17T16:02:49.182Z,20.50
2022-10-17T16:05:23.034Z,20.40
2022-10-17T16:07:53.214Z,20.30
2022-10-17T16:10:22.587Z,20.30
2022-10-17T16:12:51.158Z,20.40
2022-10-17T16:15:22.493Z,20.20
2022-10-17T16:17:50.871Z,20.10
2022-10-17T16:20:19.532Z,20.10
2022-10-17T16:22:48.849Z,20.00
2022-10-17T16:25:21.551Z,20.00
2022-10-17T16:27:51.590Z,19.90
2022-10-17T16:32:49.416Z,19.70
2022-10-17T16:35:20.581Z,19.70
2022-10-17T16:37:48.739Z,19.50
2022-10-17T16:40:17.411Z,19.30
2022-10-17T16:42:47.175Z,19.30
2022-10-17T16:45:18.474Z,19.20
2022-10-17T16:47:46.899Z,19.10
2022-10-17T16:50:15.156Z,19.10
2022-10-17T16:52:43.669Z,19.00
2022-10-17T16:55:11.814Z,19.00
2022-10-17T16:57:39.879Z,18.90
2022-10-17T17:00:11.911Z,18.90
2022-10-17T17:02:40.001Z,18.80
2022-10-17T17:05:09.093Z,18.80
2022-10-17T17:07:37.172Z,18.70
2022-10-17T17:10:06.169Z,18.70
2022-10-17T17:12:34.665Z,18.70
2022-10-17T17:15:03.030Z,18.60
2022-10-17T17:17:49.291Z,18.60
2022-10-17T17:20:19.418Z,18.50
2022-10-17T17:22:47.427Z,18.40
2022-10-17T17:25:15.621Z,18.40
2022-10-17T17:27:43.721Z,18.30
2022-10-17T17:30:12.483Z,18.30
2022-10-17T17:32:41.842Z,18.30
2022-10-17T17:35:10.556Z,18.20
2022-10-17T17:37:38.594Z,18.10
2022-10-17T17:40:07.744Z,18.10
2022-10-17T17:42:35.984Z,18.10
2022-10-17T17:45:04.655Z,18.10
2022-10-17T17:47:32.807Z,18.10
2022-10-17T17:50:03.571Z,18.10
2022-10-17T17:52:32.009Z,18.10
2022-10-17T17:55:00.315Z,18.00
2022-10-17T17:57:30.589Z,18.00
2022-10-17T17:59:58.668Z,17.80
2022-10-17T18:02:26.946Z,17.80
2022-10-17T18:04:55.083Z,17.80
2022-10-17T18:07:24.786Z,17.70
2022-10-17T18:09:52.887Z,17.60
2022-10-17T18:12:21.109Z,17.50
2022-10-17T18:14:49.203Z,17.50
2022-10-17T18:17:17.233Z,17.40
2022-10-17T18:19:45.262Z,17.30
2022-10-17T18:22:13.281Z,17.20
2022-10-17T18:24:42.665Z,17.30
2022-10-17T18:27:12.675Z,17.30
2022-10-17T18:29:40.692Z,17.20
2022-10-17T18:32:10.267Z,17.20
2022-10-17T18:34:38.362Z,17.20
2022-10-17T18:37:06.653Z,17.10
2022-10-17T18:39:34.945Z,17.10
2022-10-17T18:42:04.430Z,17.10
2022-10-17T18:44:32.489Z,17.10
2022-10-17T18:47:03.873Z,17.00
2022-10-17T18:49:32.575Z,17.10
2022-10-17T18:52:00.678Z,17.00
2022-10-17T18:54:29.281Z,16.90
2022-10-17T18:56:57.581Z,16.80
2022-10-17T18:59:26.980Z,16.80
2022-10-17T19:01:55.085Z,16.70
2022-10-17T19:04:23.496Z,16.80
2022-10-17T19:06:51.529Z,16.80
2022-10-17T19:09:19.734Z,16.70
2022-10-17T19:11:47.809Z,16.70
2022-10-17T19:14:15.953Z,16.70
2022-10-17T19:16:48.526Z,16.60
2022-10-17T19:19:19.310Z,16.60
2022-10-17T19:21:47.353Z,16.50
2022-10-17T19:24:17.407Z,16.50
2022-10-17T19:26:46.724Z,16.50
2022-10-17T19:29:16.037Z,16.50
2022-10-17T19:31:46.334Z,16.50
2022-10-17T19:34:15.607Z,16.50
2022-10-17T19:36:44.066Z,16.40
2022-10-17T19:39:13.897Z,16.40
2022-10-17T19:41:42.100Z,16.40
2022-10-17T19:44:10.465Z,16.40
2022-10-17T19:46:39.342Z,16.30
2022-10-17T19:49:08.765Z,16.30
2022-10-17T19:51:36.773Z,16.30
2022-10-17T19:54:05.194Z,16.20
2022-10-17T19:56:37.613Z,16.20
2022-10-17T19:59:06.561Z,16.30
2022-10-17T20:01:38.747Z,16.20
2022-10-17T20:04:10.637Z,16.20
2022-10-17T20:06:38.875Z,16.20
2022-10-17T20:09:09.801Z,16.20
2022-10-17T20:11:40.568Z,16.20
2022-10-17T20:14:08.830Z,16.20
2022-10-17T20:16:37.812Z,16.20
2022-10-17T20:19:08.956Z,16.20
2022-10-17T20:21:39.540Z,16.20
2022-10-17T20:24:09.471Z,16.20
2022-10-17T20:26:38.977Z,16.20
2022-10-17T20:29:10.921Z,16.30
2022-10-17T20:31:39.832Z,16.30
2022-10-17T20:34:12.457Z,16.20
2022-10-17T20:36:40.580Z,16.20
2022-10-17T20:39:09.353Z,16.20
2022-10-17T20:41:37.422Z,16.20
2022-10-17T20:44:06.788Z,16.20
2022-10-17T20:46:37.368Z,16.20
2022-10-17T20:49:07.087Z,16.10
2022-10-17T20:51:37.093Z,16.20
2022-10-17T20:54:05.573Z,16.20
2022-10-17T20:56:34.970Z,16.20
2022-10-17T20:59:05.691Z,16.20
2022-10-17T21:01:35.902Z,16.10
2022-10-17T21:06:54.768Z,16.10
2022-10-17T21:09:23.246Z,16.10
2022-10-17T21:11:55.093Z,16.10
2022-10-17T21:14:25.038Z,16.10
2022-10-17T21:16:53.482Z,16.00
2022-10-17T21:19:22.611Z,16.00
2022-10-17T21:21:50.842Z,16.00
2022-10-17T21:24:20.817Z,16.00
2022-10-17T21:26:55.223Z,16.00
2022-10-17T21:29:24.385Z,16.00
2022-10-17T21:31:52.662Z,15.90
2022-10-17T21:34:24.395Z,15.90
2022-10-17T21:36:52.836Z,15.90
2022-10-17T21:39:23.966Z,15.80
2022-10-17T21:41:52.677Z,15.80
2022-10-17T21:44:22.437Z,15.80
2022-10-17T21:46:50.838Z,15.80
2022-10-17T21:49:20.601Z,15.80
2022-10-17T21:51:49.635Z,15.80
2022-10-17T21:54:19.303Z,15.80
2022-10-17T21:56:48.728Z,15.80
2022-10-17T21:59:16.875Z,15.70
2022-10-17T22:01:46.522Z,15.70
2022-10-17T22:04:16.369Z,15.70
2022-10-17T22:06:46.657Z,15.80
2022-10-17T22:09:16.418Z,15.70
2022-10-17T22:11:46.788Z,15.70
2022-10-17T22:14:18.423Z,15.60
2022-10-17T22:16:47.608Z,15.60
2022-10-17T22:19:17.411Z,15.60
2022-10-17T22:21:46.109Z,15.70
2022-10-17T22:24:16.315Z,15.70
2022-10-17T22:26:44.821Z,15.70
2022-10-17T22:29:13.144Z,15.60
2022-10-17T22:31:42.739Z,15.60
2022-10-17T22:34:13.182Z,15.60
2022-10-17T22:36:41.416Z,15.60
2022-10-17T22:39:09.781Z,15.60
2022-10-17T22:41:37.931Z,15.60
2022-10-17T22:44:06.556Z,15.60
2022-10-17T22:46:34.768Z,15.60
2022-10-17T22:49:04.531Z,15.60
2022-10-17T22:51:32.692Z,15.60
2022-10-17T22:54:00.696Z,15.50
2022-10-17T22:56:28.849Z,15.50
2022-10-17T22:58:56.841Z,15.50
2022-10-17T23:01:26.536Z,15.60
2022-10-17T23:03:54.931Z,15.50
2022-10-17T23:06:24.733Z,15.90
2022-10-17T23:08:53.154Z,15.50
2022-10-17T23:11:21.825Z,15.50
2022-10-17T23:13:50.046Z,15.50
2022-10-17T23:16:18.093Z,15.50
2022-10-17T23:18:46.151Z,15.50
2022-10-17T23:21:14.282Z,15.50
2022-10-17T23:23:43.629Z,15.50
2022-10-17T23:26:13.637Z,15.40
2022-10-17T23:28:42.835Z,15.40
2022-10-17T23:31:13.238Z,15.40
2022-10-17T23:33:41.623Z,15.40
2022-10-17T23:36:10.985Z,15.40
2022-10-17T23:38:39.146Z,15.40
2022-10-17T23:41:09.259Z,15.40
2022-10-17T23:43:37.530Z,15.40
2022-10-17T23:46:06.797Z,15.40
2022-10-17T23:48:35.103Z,15.40
2022-10-17T23:51:03.384Z,15.40
2022-10-17T23:53:31.369Z,15.40
2022-10-17T23:55:59.360Z,15.30
2022-10-17T23:58:28.740Z,15.30
